ΕΜΥ, Εθνική Μετεωρολογική Υπηρεσία - Δελτία Καιρού, Προγνώσεις

ΑΕΡΟΝΑΥΤΙΛΙΑ

GREEK AIRPORTS CODES

LGML 011300Z 35010KT 9999 FEW015 SCT025 10/03 Q1019=

EUROPEAN AIRPORTS CODES

LFPO 012000Z 25008KT CAVOK 08/02 Q1029 NOSIG=